Edwall, Washington
Current Conditions -  °F | °C
As of 8:58 PM on Saturday 25 Oct 2014 (Local Time) from KSKA Reporting Station
Scattered Clouds Scattered Clouds  
Wind Chill: 55°   Ceiling: Unl
Heat Index: 55°   Visibility: 10mi
Dew Point: 44°   Wind: 17mph
Humidity: 67%   Direction: 180°S
Pressure: 29.52"   Gusts: 29mph
Location:  47.5°N, 117.95°W
Report Text: KSKA 260358Z AUTO 18015G25KT 10SM SCT075 SCT085 13/07 A2952 RMK AO2 RAB0257E0321 SLP000 P0000 T01280068
Loading
Personal Weather Stations






























Interactive Weather Map
Tropical Storm Tracking
New forecast layout! Learn more

10-Day Weather Forecast

Advertisements
Track Severe Weather on mobile